Time;durP1;ratioP1;P1;durP2;ratioP2;P2;SDS_P1;SDS_P2;PMS_P1;PMS_P2;Temp;Humidity;BMP_temperature;BMP_pressure;BME280_temperature;BME280_humidity;BME280_pressure;Samples;Min_cycle;Max_cycle;Signal;HPM_P1;HPM_P2
2023/06/02 00:01:02;;;;;;;3.70;0.60;;;11.10;99.90;;;;;;4988336;28;20026;-80
2023/06/02 00:03:33;;;;;;;7.93;1.10;;;11.10;99.90;;;;;;5004685;28;20446;-79
2023/06/02 00:06:08;;;;;;;4.70;0.60;;;11.00;99.90;;;;;;5006251;28;20092;-81
2023/06/02 00:08:38;;;;;;;5.93;1.05;;;11.00;99.90;;;;;;5018310;28;20109;-81
2023/06/02 00:11:05;;;;;;;4.38;0.50;;;11.00;99.90;;;;;;5008342;28;20030;-81
2023/06/02 00:13:31;;;;;;;4.40;0.50;;;11.10;99.90;;;;;;5006702;28;20505;-80
2023/06/02 00:15:57;;;;;;;2.22;0.40;;;11.10;99.90;;;;;;5006797;28;20025;-80
2023/06/02 00:18:24;;;;;;;5.30;0.50;;;11.10;99.90;;;;;;5012965;28;20030;-80
2023/06/02 00:20:51;;;;;;;2.88;0.45;;;11.10;99.90;;;;;;5005481;28;20072;-81
2023/06/02 00:23:16;;;;;;;4.65;0.40;;;11.20;99.90;;;;;;5007736;28;20068;-80
2023/06/02 00:25:42;;;;;;;5.05;1.02;;;11.10;99.90;;;;;;5006759;28;20066;-81
2023/06/02 00:28:08;;;;;;;7.95;0.70;;;11.10;99.90;;;;;;4986794;28;20033;-81
2023/06/02 00:30:34;;;;;;;6.07;0.57;;;11.10;99.90;;;;;;5004612;28;20030;-81
2023/06/02 00:33:01;;;;;;;7.95;0.52;;;11.10;99.90;;;;;;5019402;28;20077;-80
2023/06/02 00:35:27;;;;;;;6.25;0.70;;;11.10;99.90;;;;;;5005124;28;20026;-81
2023/06/02 00:37:53;;;;;;;7.90;0.73;;;11.10;99.90;;;;;;5008481;28;20412;-81
2023/06/02 00:40:20;;;;;;;8.30;0.80;;;11.10;99.90;;;;;;5006026;28;20029;-81
2023/06/02 00:42:45;;;;;;;5.72;0.75;;;11.10;99.90;;;;;;5003475;28;20022;-81
2023/06/02 00:45:11;;;;;;;7.03;0.60;;;11.10;99.90;;;;;;5003761;28;20092;-82
2023/06/02 00:47:37;;;;;;;4.25;0.47;;;11.10;99.90;;;;;;5004079;28;20026;-81
2023/06/02 00:50:03;;;;;;;2.25;0.40;;;11.10;99.90;;;;;;4996508;28;20394;-81
2023/06/02 00:52:30;;;;;;;6.00;0.57;;;11.10;99.90;;;;;;5001519;28;20033;-81
2023/06/02 00:54:56;;;;;;;3.60;0.57;;;11.10;99.90;;;;;;4989356;28;20034;-81
2023/06/02 00:57:28;;;;;;;5.20;0.60;;;11.10;99.90;;;;;;5021108;28;20478;-81
2023/06/02 00:59:55;;;;;;;2.42;0.77;;;11.10;99.90;;;;;;5018639;28;20345;-81
2023/06/02 01:02:22;;;;;;;5.28;0.50;;;11.10;99.90;;;;;;4993993;28;20041;-81
2023/06/02 01:04:50;;;;;;;6.40;0.50;;;11.10;99.90;;;;;;5004692;28;20080;-81
2023/06/02 01:07:23;;;;;;;6.10;0.70;;;11.20;99.90;;;;;;5005787;28;20069;-81
2023/06/02 01:09:52;;;;;;;4.63;0.65;;;11.10;99.90;;;;;;5007380;28;20022;-81
2023/06/02 01:12:19;;;;;;;4.10;0.50;;;11.10;99.90;;;;;;5020849;28;20033;-81
2023/06/02 01:14:45;;;;;;;5.70;0.60;;;11.20;99.90;;;;;;5004113;28;20045;-80
2023/06/02 01:17:11;;;;;;;3.65;0.50;;;11.10;99.90;;;;;;4989196;28;20120;-81
2023/06/02 01:19:38;;;;;;;4.80;0.50;;;11.20;99.90;;;;;;5008790;28;20109;-80
2023/06/02 01:22:05;;;;;;;7.28;0.60;;;11.20;99.90;;;;;;5007525;28;20109;-80
2023/06/02 01:24:39;;;;;;;3.92;0.50;;;11.10;99.90;;;;;;5026098;28;20032;-80
2023/06/02 01:27:06;;;;;;;2.67;0.50;;;11.10;99.90;;;;;;5006799;28;20069;-80
2023/06/02 01:29:35;;;;;;;4.45;0.70;;;11.10;99.90;;;;;;4992272;28;20029;-81
2023/06/02 01:32:05;;;;;;;5.17;0.70;;;11.10;99.90;;;;;;5008450;28;20446;-82
2023/06/02 01:34:37;;;;;;;;;;;11.10;99.90;;;;;;5006527;28;20080;-81
2023/06/02 01:37:04;;;;;;;5.85;1.05;;;11.00;99.90;;;;;;5024308;28;19914;-81
2023/06/02 01:39:30;;;;;;;6.85;0.90;;;11.00;99.90;;;;;;5007564;28;20077;-81
2023/06/02 01:41:58;;;;;;;8.05;0.77;;;11.00;99.90;;;;;;5023345;28;20040;-82
2023/06/02 01:44:26;;;;;;;7.13;0.70;;;11.00;99.90;;;;;;5022718;28;20030;-81
2023/06/02 01:46:52;;;;;;;5.70;0.65;;;10.90;99.90;;;;;;4995219;28;20522;-81
2023/06/02 01:49:19;;;;;;;6.50;0.70;;;10.90;99.90;;;;;;4992044;28;20125;-81
2023/06/02 01:51:45;;;;;;;7.65;1.13;;;11.00;99.90;;;;;;5006456;28;20101;-81
2023/06/02 01:54:11;;;;;;;9.70;1.38;;;10.90;99.90;;;;;;5008525;28;20052;-81
2023/06/02 01:56:37;;;;;;;7.32;0.70;;;10.90;99.90;;;;;;5009963;28;20490;-81
2023/06/02 01:59:03;;;;;;;7.35;0.70;;;10.80;99.90;;;;;;4992004;28;20041;-81
2023/06/02 02:01:30;;;;;;;9.32;1.23;;;10.80;99.90;;;;;;5010954;28;20375;-81
2023/06/02 02:03:56;;;;;;;5.30;0.80;;;10.70;99.90;;;;;;5008908;28;20498;-81
2023/06/02 02:06:24;;;;;;;11.32;1.38;;;10.70;99.90;;;;;;5008502;28;20040;-81
2023/06/02 02:08:50;;;;;;;5.93;0.80;;;10.70;99.90;;;;;;5006336;28;20583;-81
2023/06/02 02:11:16;;;;;;;9.85;0.93;;;10.60;99.90;;;;;;5006955;28;20057;-81
2023/06/02 02:13:41;;;;;;;7.15;0.82;;;10.60;99.90;;;;;;5009258;28;20073;-82
2023/06/02 02:16:07;;;;;;;6.40;0.82;;;10.60;99.90;;;;;;5009619;28;20437;-81
2023/06/02 02:18:33;;;;;;;8.20;0.90;;;10.60;99.90;;;;;;4992148;28;20467;-81
2023/06/02 02:20:59;;;;;;;9.05;1.65;;;10.50;99.90;;;;;;5017598;28;20030;-81
2023/06/02 02:23:25;;;;;;;5.07;0.77;;;10.50;99.90;;;;;;5009096;28;20064;-82
2023/06/02 02:25:51;;;;;;;4.88;0.60;;;10.50;99.90;;;;;;5002331;28;20112;-81
2023/06/02 02:28:16;;;;;;;6.10;0.93;;;10.50;99.90;;;;;;5025627;28;20491;-82
2023/06/02 02:30:42;;;;;;;4.30;0.77;;;10.50;99.90;;;;;;5007762;28;20030;-81
2023/06/02 02:33:08;;;;;;;5.47;0.70;;;10.50;99.90;;;;;;5005189;28;20026;-80
2023/06/02 02:35:34;;;;;;;4.65;0.60;;;10.50;99.90;;;;;;5003744;28;20023;-80
2023/06/02 02:38:01;;;;;;;6.88;0.60;;;10.50;99.90;;;;;;4990959;28;20459;-81
2023/06/02 02:40:28;;;;;;;5.78;0.70;;;10.40;99.90;;;;;;4992566;28;20058;-80
2023/06/02 02:42:53;;;;;;;3.85;0.60;;;10.40;99.90;;;;;;4991040;28;20103;-80
2023/06/02 02:45:20;;;;;;;3.80;0.60;;;10.50;99.90;;;;;;5001013;28;20033;-80
2023/06/02 02:47:46;;;;;;;7.65;0.90;;;10.50;99.90;;;;;;5005988;28;20148;-81
2023/06/02 02:50:12;;;;;;;8.55;1.02;;;10.40;99.90;;;;;;5007569;28;20125;-80
2023/06/02 02:52:39;;;;;;;4.35;0.82;;;10.40;99.90;;;;;;5007635;28;20112;-80
2023/06/02 02:55:05;;;;;;;3.28;0.50;;;10.50;99.90;;;;;;5007947;28;20112;-80
2023/06/02 02:57:32;;;;;;;4.38;0.60;;;10.50;99.90;;;;;;5004559;28;20107;-80
2023/06/02 02:59:58;;;;;;;5.03;0.60;;;10.50;99.90;;;;;;5009070;28;20466;-80
2023/06/02 03:02:23;;;;;;;5.53;0.90;;;10.50;99.90;;;;;;4993110;28;20121;-79
2023/06/02 03:04:51;;;;;;;4.00;1.05;;;10.40;99.90;;;;;;5000260;28;20018;-81
2023/06/02 03:07:18;;;;;;;4.40;0.77;;;10.40;99.90;;;;;;5003929;28;20031;-82
2023/06/02 03:09:44;;;;;;;3.85;0.80;;;10.40;99.90;;;;;;5009321;28;20025;-81
2023/06/02 03:12:10;;;;;;;3.05;0.50;;;10.40;99.90;;;;;;4990809;28;20034;-82
2023/06/02 03:14:36;;;;;;;3.63;0.50;;;10.50;99.90;;;;;;4991877;28;20125;-82
2023/06/02 03:17:03;;;;;;;3.35;0.32;;;10.50;99.90;;;;;;4993385;28;20157;-81
2023/06/02 03:19:29;;;;;;;3.33;0.57;;;10.50;99.90;;;;;;5007535;28;20490;-81
2023/06/02 03:21:57;;;;;;;6.35;0.80;;;10.40;99.90;;;;;;4990929;28;20032;-81
2023/06/02 03:24:24;;;;;;;2.90;0.55;;;10.40;99.90;;;;;;5005539;28;20165;-81
2023/06/02 03:26:52;;;;;;;6.50;0.52;;;10.40;99.90;;;;;;4986260;28;20073;-81
2023/06/02 03:29:19;;;;;;;5.15;0.60;;;10.40;99.90;;;;;;4989995;28;20390;-81
2023/06/02 03:31:47;;;;;;;7.35;0.80;;;10.30;99.90;;;;;;4991548;28;20087;-81
2023/06/02 03:34:17;;;;;;;4.78;0.70;;;10.20;99.90;;;;;;4989301;28;20410;-81
2023/06/02 03:36:43;;;;;;;3.05;0.50;;;10.20;99.90;;;;;;5008867;28;20038;-81
2023/06/02 03:39:12;;;;;;;5.75;0.55;;;10.20;99.90;;;;;;5015358;28;20022;-81
2023/06/02 03:41:39;;;;;;;5.00;0.60;;;10.20;99.90;;;;;;5004980;28;20026;-81
2023/06/02 03:44:05;;;;;;;4.30;0.50;;;10.20;99.90;;;;;;5008787;28;20100;-82
2023/06/02 03:46:33;;;;;;;4.68;0.50;;;10.20;99.90;;;;;;5004785;28;20084;-81
2023/06/02 03:49:01;;;;;;;5.53;0.43;;;10.20;99.90;;;;;;4990716;28;20125;-81
2023/06/02 03:51:26;;;;;;;3.47;0.75;;;10.20;99.90;;;;;;5007476;28;20052;-81
2023/06/02 03:53:54;;;;;;;5.72;0.65;;;10.20;99.90;;;;;;5005462;28;20022;-81
2023/06/02 03:56:22;;;;;;;4.00;0.60;;;10.30;99.90;;;;;;5021227;28;20022;-81
2023/06/02 03:58:48;;;;;;;2.55;0.35;;;10.30;99.90;;;;;;5008301;28;20021;-81
2023/06/02 04:01:27;;;;;;;9.35;0.50;;;10.30;99.90;;;;;;5112898;27;20109;-82
2023/06/02 04:03:54;;;;;;;4.32;0.40;;;10.30;99.90;;;;;;5084487;28;20124;-82
2023/06/02 04:06:21;;;;;;;7.13;0.60;;;10.20;99.90;;;;;;5115060;28;20027;-81
2023/06/02 04:08:47;;;;;;;8.25;1.15;;;10.20;99.90;;;;;;5070057;28;20031;-80
2023/06/02 04:11:14;;;;;;;7.07;0.80;;;10.20;99.90;;;;;;5068628;28;20448;-81
2023/06/02 04:13:40;;;;;;;4.40;1.02;;;10.20;99.90;;;;;;5063211;28;20047;-81
2023/06/02 04:16:07;;;;;;;8.23;0.90;;;10.20;99.90;;;;;;5095983;28;20097;-81
2023/06/02 04:18:36;;;;;;;6.78;1.38;;;10.30;99.90;;;;;;5098491;28;20039;-81
2023/06/02 04:21:02;;;;;;;;;;;10.20;99.90;;;;;;5086150;28;20034;-81
2023/06/02 04:23:28;;;;;;;6.35;0.85;;;10.20;99.90;;;;;;5083257;28;19912;-81
2023/06/02 04:25:54;;;;;;;3.05;0.40;;;10.30;99.90;;;;;;5064122;28;20023;-80
2023/06/02 04:28:20;;;;;;;9.20;0.80;;;10.30;99.90;;;;;;5083222;28;20024;-82
2023/06/02 04:30:54;;;;;;;3.33;0.47;;;10.20;99.90;;;;;;5085253;28;20036;-81
2023/06/02 04:33:22;;;;;;;8.07;0.50;;;10.20;99.90;;;;;;5066838;28;20020;-81
2023/06/02 04:35:48;;;;;;;3.30;0.60;;;10.20;99.90;;;;;;5084781;28;20084;-81
2023/06/02 04:38:14;;;;;;;5.43;1.10;;;10.30;99.90;;;;;;5083711;28;20166;-81
2023/06/02 04:40:42;;;;;;;3.65;0.30;;;10.40;99.90;;;;;;5085367;28;20507;-81
2023/06/02 04:43:08;;;;;;;3.28;0.32;;;10.40;99.90;;;;;;5085674;28;20392;-82
2023/06/02 04:45:34;;;;;;;4.00;0.40;;;10.50;99.90;;;;;;5068582;28;20028;-82
2023/06/02 04:48:01;;;;;;;4.47;0.52;;;10.50;99.90;;;;;;5068798;28;20078;-81
2023/06/02 04:50:27;;;;;;;5.82;0.30;;;10.50;99.90;;;;;;5098365;28;20039;-82
2023/06/02 04:52:53;;;;;;;2.80;0.30;;;10.50;99.90;;;;;;5085711;28;20020;-82
2023/06/02 04:55:19;;;;;;;3.63;0.30;;;10.60;99.90;;;;;;5101708;28;20464;-82
2023/06/02 04:57:48;;;;;;;4.63;0.40;;;10.60;99.90;;;;;;5084617;28;20031;-82
2023/06/02 05:00:15;;;;;;;3.38;0.30;;;10.60;99.90;;;;;;5061121;28;20051;-82
2023/06/02 05:02:41;;;;;;;5.57;0.57;;;10.60;99.90;;;;;;5080759;28;20024;-82
2023/06/02 05:05:08;;;;;;;6.50;0.50;;;10.60;99.90;;;;;;5064966;28;20054;-82
2023/06/02 05:07:35;;;;;;;4.20;0.50;;;10.60;99.90;;;;;;5062588;28;20146;-81
2023/06/02 05:10:00;;;;;;;3.42;0.40;;;10.80;99.90;;;;;;5095784;28;20464;-82
2023/06/02 05:12:26;;;;;;;3.28;0.40;;;10.70;99.90;;;;;;5083221;28;20102;-81
2023/06/02 05:14:53;;;;;;;4.70;0.50;;;10.70;99.90;;;;;;5067929;28;20025;-82
2023/06/02 05:17:21;;;;;;;4.88;0.40;;;10.70;99.90;;;;;;5072392;28;20031;-82
2023/06/02 05:19:47;;;;;;;6.57;0.40;;;10.90;99.90;;;;;;5052286;28;20037;-81
2023/06/02 05:22:13;;;;;;;2.80;0.30;;;11.00;99.90;;;;;;5089542;28;20024;-82
2023/06/02 05:24:39;;;;;;;5.55;0.60;;;10.90;99.90;;;;;;5088792;28;20055;-81
2023/06/02 05:27:07;;;;;;;9.90;0.60;;;10.80;99.90;;;;;;5085150;28;20036;-81
2023/06/02 05:29:33;;;;;;;3.85;0.40;;;10.70;99.90;;;;;;5087211;28;20020;-81
2023/06/02 05:31:58;;;;;;;2.60;0.30;;;10.80;99.90;;;;;;5070189;28;20028;-81
2023/06/02 05:34:24;;;;;;;6.70;0.47;;;11.00;99.90;;;;;;5054186;28;20233;-81
2023/06/02 05:36:50;;;;;;;6.93;0.40;;;10.90;99.90;;;;;;5067976;28;20024;-81
2023/06/02 05:39:16;;;;;;;4.53;0.50;;;10.90;99.90;;;;;;5068097;28;20113;-81
2023/06/02 05:41:43;;;;;;;4.32;0.60;;;11.00;99.90;;;;;;5081190;28;20024;-82
2023/06/02 05:44:08;;;;;;;6.10;0.52;;;11.10;99.90;;;;;;5067647;28;20016;-82
2023/06/02 05:46:39;;;;;;;6.72;0.55;;;11.00;99.90;;;;;;5080898;28;20582;-81
2023/06/02 05:49:04;;;;;;;6.20;0.73;;;10.90;99.90;;;;;;5068935;28;20385;-82
2023/06/02 05:51:31;;;;;;;5.80;0.40;;;10.90;99.90;;;;;;5055353;28;20495;-82
2023/06/02 05:53:57;;;;;;;4.47;0.32;;;11.10;99.90;;;;;;5086333;28;20074;-81
2023/06/02 05:56:23;;;;;;;6.45;0.50;;;11.10;99.90;;;;;;5069030;28;20399;-81
2023/06/02 05:58:49;;;;;;;5.20;0.55;;;11.10;99.90;;;;;;5067970;28;20021;-81
2023/06/02 06:01:15;;;;;;;2.63;0.30;;;11.30;99.90;;;;;;5070464;28;20054;-81
2023/06/02 06:03:41;;;;;;;2.92;0.30;;;11.40;99.90;;;;;;5067946;28;20024;-81
2023/06/02 06:06:08;;;;;;;4.80;0.40;;;11.30;99.90;;;;;;5055376;28;20028;-80
2023/06/02 06:08:34;;;;;;;5.93;0.60;;;11.30;99.90;;;;;;5069176;28;20021;-81
2023/06/02 06:11:00;;;;;;;3.47;0.32;;;11.30;99.90;;;;;;5086282;28;20024;-81
2023/06/02 06:13:26;;;;;;;2.67;0.40;;;11.40;99.90;;;;;;5083898;28;20074;-81
2023/06/02 06:15:52;;;;;;;6.78;0.70;;;11.50;99.90;;;;;;5050552;28;20032;-81
2023/06/02 06:18:19;;;;;;;4.80;0.85;;;11.30;99.90;;;;;;5101438;28;20621;-82
2023/06/02 06:20:45;;;;;;;4.93;0.50;;;11.30;99.90;;;;;;5066370;28;20063;-82
2023/06/02 06:23:15;;;;;;;3.67;0.60;;;11.60;99.90;;;;;;5082117;28;20024;-82
2023/06/02 06:25:42;;;;;;;4.00;0.40;;;11.60;99.90;;;;;;5064436;28;20032;-81
2023/06/02 06:28:12;;;;;;;5.25;0.40;;;11.60;99.90;;;;;;5068834;28;20380;-81
2023/06/02 06:30:39;;;;;;;3.65;0.38;;;11.70;99.90;;;;;;5066492;28;20024;-79
2023/06/02 06:33:08;;;;;;;6.30;0.63;;;11.70;99.90;;;;;;5064128;28;20028;-81
2023/06/02 06:35:35;;;;;;;2.67;0.35;;;11.90;99.90;;;;;;5051141;28;20044;-81
2023/06/02 06:38:03;;;;;;;4.30;0.50;;;11.90;99.90;;;;;;5066393;28;20028;-80
2023/06/02 06:40:31;;;;;;;8.25;1.00;;;12.00;99.90;;;;;;5048744;28;20441;-81
2023/06/02 06:42:57;;;;;;;1.90;0.28;;;11.60;99.90;;;;;;5065939;28;20035;-82
2023/06/02 06:45:31;;;;;;;5.35;0.50;;;11.80;99.90;;;;;;5050948;28;20448;-80
2023/06/02 06:47:57;;;;;;;3.38;0.55;;;11.60;99.90;;;;;;5065436;28;20073;-82
2023/06/02 06:50:23;;;;;;;5.55;0.55;;;11.70;99.90;;;;;;5083978;28;20118;-82
2023/06/02 06:52:50;;;;;;;4.38;0.40;;;11.90;99.90;;;;;;5044517;28;20025;-81
2023/06/02 06:55:16;;;;;;;8.30;0.55;;;12.10;99.90;;;;;;5065178;28;20024;-80
2023/06/02 06:57:41;;;;;;;6.18;0.50;;;11.90;99.90;;;;;;5051814;28;20366;-81
2023/06/02 07:00:08;;;;;;;4.07;0.40;;;11.90;99.90;;;;;;5081283;28;20085;-82
2023/06/02 07:02:35;;;;;;;2.88;0.40;;;12.10;99.90;;;;;;5078692;28;20120;-81
2023/06/02 07:05:00;;;;;;;3.22;0.40;;;12.40;99.90;;;;;;5052100;28;20120;-81
2023/06/02 07:07:26;;;;;;;2.08;0.30;;;12.50;99.90;;;;;;5083909;28;20241;-82
2023/06/02 07:09:53;;;;;;;5.13;0.50;;;12.50;99.90;;;;;;5066477;28;20115;-82
2023/06/02 07:12:19;;;;;;;6.18;1.10;;;12.60;99.90;;;;;;5049884;28;20035;-81
2023/06/02 07:14:44;;;;;;;4.25;0.45;;;12.40;99.90;;;;;;5067121;28;20020;-81
2023/06/02 07:17:10;;;;;;;4.38;0.43;;;12.50;99.90;;;;;;5069868;28;20312;-81
2023/06/02 07:19:36;;;;;;;4.97;0.35;;;12.50;99.90;;;;;;5063739;28;20522;-81
2023/06/02 07:22:01;;;;;;;6.35;1.15;;;12.60;99.90;;;;;;5053114;28;20034;-82
2023/06/02 07:24:27;;;;;;;5.93;1.15;;;12.60;99.90;;;;;;5068545;28;20081;-82
2023/06/02 07:26:54;;;;;;;4.30;0.45;;;12.50;99.90;;;;;;5095693;28;20028;-81
2023/06/02 07:29:20;;;;;;;3.30;0.60;;;12.60;99.90;;;;;;5083150;28;20024;-81
2023/06/02 07:31:46;;;;;;;4.07;0.40;;;12.70;99.90;;;;;;5079789;28;20035;-81
2023/06/02 07:34:12;;;;;;;2.67;0.30;;;12.70;99.90;;;;;;5063469;28;20027;-81
2023/06/02 07:36:38;;;;;;;6.00;0.47;;;12.80;99.90;;;;;;5053081;28;20057;-81
2023/06/02 07:39:04;;;;;;;2.15;0.30;;;12.90;99.90;;;;;;5066665;28;20029;-81
2023/06/02 07:41:29;;;;;;;1.67;0.30;;;12.80;99.90;;;;;;5079127;28;20029;-80
2023/06/02 07:43:58;;;;;;;6.03;0.55;;;13.00;99.90;;;;;;5080075;28;20395;-81
2023/06/02 07:46:23;;;;;;;3.42;0.47;;;12.90;99.90;;;;;;5062818;28;20437;-81
2023/06/02 07:48:49;;;;;;;3.08;0.40;;;12.90;99.90;;;;;;5065072;28;20031;-81
2023/06/02 07:51:15;;;;;;;4.45;0.50;;;12.80;99.90;;;;;;5096979;28;20241;-81
2023/06/02 07:53:41;;;;;;;7.00;0.57;;;12.60;99.90;;;;;;5066739;28;20131;-80
2023/06/02 07:56:06;;;;;;;6.35;0.50;;;12.50;99.90;;;;;;5068131;28;22205;-81
2023/06/02 07:58:32;;;;;;;8.45;0.70;;;12.70;99.90;;;;;;5094919;28;20032;-81
2023/06/02 08:00:58;;;;;;;7.05;0.75;;;12.50;99.90;;;;;;5063084;28;20048;-80
2023/06/02 08:03:23;;;;;;;4.80;0.43;;;12.70;99.90;;;;;;5094975;28;20127;-81
2023/06/02 08:05:49;;;;;;;3.08;0.40;;;12.90;99.90;;;;;;5062841;28;20047;-82
2023/06/02 08:08:15;;;;;;;2.60;0.45;;;13.10;99.90;;;;;;5046926;28;20047;-81
2023/06/02 08:10:40;;;;;;;2.08;0.40;;;13.10;99.90;;;;;;5064403;28;20024;-81
2023/06/02 08:13:06;;;;;;;2.65;0.40;;;13.10;99.90;;;;;;5094044;28;20036;-81
2023/06/02 08:15:32;;;;;;;3.22;0.40;;;13.20;99.90;;;;;;5073542;28;20016;-82
2023/06/02 08:17:57;;;;;;;5.50;0.60;;;13.30;99.90;;;;;;5074363;28;20025;-81
2023/06/02 08:20:23;;;;;;;6.80;0.93;;;12.80;99.90;;;;;;5081189;28;20040;-83
2023/06/02 08:22:49;;;;;;;8.10;0.70;;;13.00;99.90;;;;;;5065557;28;20030;-82
2023/06/02 08:25:15;;;;;;;6.78;0.57;;;12.90;99.90;;;;;;5082814;28;20400;-81
2023/06/02 08:27:44;;;;;;;5.13;0.52;;;12.80;99.90;;;;;;5079962;28;20377;-81
2023/06/02 08:30:11;;;;;;;6.68;0.60;;;13.10;99.90;;;;;;5062929;28;20074;-81
2023/06/02 08:32:37;;;;;;;3.00;0.55;;;13.20;99.90;;;;;;5078442;28;20093;-82
2023/06/02 08:35:03;;;;;;;2.47;0.38;;;13.50;99.90;;;;;;5061455;28;20473;-81
2023/06/02 08:37:31;;;;;;;7.38;0.70;;;13.80;99.90;;;;;;5061773;28;20073;-81
2023/06/02 08:39:58;;;;;;;2.25;0.50;;;13.40;99.90;;;;;;5068068;28;20040;-81
2023/06/02 08:42:26;;;;;;;5.13;0.50;;;13.50;99.90;;;;;;5064385;28;20027;-81
2023/06/02 08:44:52;;;;;;;2.67;0.50;;;13.40;99.90;;;;;;5094464;28;20042;-81
2023/06/02 08:47:24;;;;;;;5.35;0.73;;;13.50;99.90;;;;;;5047303;28;20392;-82
2023/06/02 08:49:50;;;;;;;4.63;0.52;;;13.20;99.90;;;;;;5069633;28;20027;-81
2023/06/02 08:52:23;;;;;;;5.75;0.68;;;13.50;99.90;;;;;;5067467;28;20244;-81
2023/06/02 08:54:50;;;;;;;4.97;0.50;;;13.60;99.90;;;;;;5067491;28;20105;-81
2023/06/02 08:57:16;;;;;;;5.18;0.60;;;13.60;99.90;;;;;;5060805;28;20040;-81
2023/06/02 08:59:45;;;;;;;6.45;0.50;;;13.80;99.90;;;;;;5054869;28;20071;-81
2023/06/02 09:02:11;;;;;;;3.33;0.50;;;13.90;99.90;;;;;;5096951;28;20514;-81
2023/06/02 09:04:37;;;;;;;8.90;0.80;;;14.00;99.90;;;;;;5045123;28;20313;-81
2023/06/02 09:07:11;;;;;;;6.53;0.70;;;13.70;99.90;;;;;;5083047;28;20028;-82
2023/06/02 09:09:45;;;;;;;5.95;0.68;;;13.90;99.90;;;;;;5051099;28;20032;-81
2023/06/02 09:12:11;;;;;;;6.90;0.90;;;14.00;99.90;;;;;;5080359;28;20044;-82
2023/06/02 09:14:38;;;;;;;4.03;0.60;;;14.00;99.90;;;;;;5072143;28;20032;-82
2023/06/02 09:17:29;;;;;;;6.22;0.60;;;14.20;99.90;;;;;;5062989;28;20066;-82
2023/06/02 09:20:06;;;;;;;4.88;0.93;;;14.30;99.90;;;;;;5064681;28;20037;-81
2023/06/02 09:22:32;;;;;;;5.30;0.60;;;14.00;99.90;;;;;;5081855;28;20032;-81
2023/06/02 09:24:58;;;;;;;5.97;0.70;;;14.10;99.90;;;;;;5065716;28;20040;-82
2023/06/02 09:27:28;;;;;;;3.72;0.50;;;14.50;99.90;;;;;;5087851;28;20021;-82
2023/06/02 09:29:59;;;;;;;5.28;0.75;;;14.40;99.90;;;;;;5095876;28;20032;-81
2023/06/02 09:32:25;;;;;;;4.82;0.98;;;14.20;99.90;;;;;;5067563;28;20032;-81
2023/06/02 09:34:51;;;;;;;4.70;0.80;;;14.10;99.90;;;;;;5067809;28;20031;-81
2023/06/02 09:37:17;;;;;;;6.55;0.70;;;14.30;99.90;;;;;;5085691;28;20036;-81
2023/06/02 09:39:45;;;;;;;5.88;0.60;;;14.60;99.90;;;;;;5063760;28;20036;-82
2023/06/02 09:42:13;;;;;;;3.65;0.50;;;14.90;99.90;;;;;;5086847;28;20032;-82
2023/06/02 09:44:41;;;;;;;2.75;0.43;;;14.70;99.90;;;;;;5082771;28;20108;-81
2023/06/02 09:47:27;;;;;;;5.30;0.52;;;14.90;99.90;;;;;;5080700;28;20460;-81
2023/06/02 09:49:53;;;;;;;2.40;0.32;;;15.30;99.90;;;;;;5081594;28;20021;-82
2023/06/02 09:52:18;;;;;;;2.75;0.38;;;15.70;99.90;;;;;;5070279;28;20127;-82
2023/06/02 09:54:48;;;;;;;5.80;0.50;;;15.80;99.90;;;;;;5082675;28;20026;-80
2023/06/02 09:57:16;;;;;;;5.15;0.70;;;15.70;99.90;;;;;;5081797;28;20020;-81
2023/06/02 09:59:43;;;;;;;4.43;0.77;;;15.80;99.90;;;;;;5065966;28;20049;-81
2023/06/02 10:02:10;;;;;;;3.90;0.60;;;15.60;99.90;;;;;;5065560;28;20036;-81
2023/06/02 10:04:36;;;;;;;4.57;0.55;;;15.50;99.90;;;;;;5064264;28;20364;-81
2023/06/02 10:07:14;;;;;;;3.83;0.50;;;15.30;99.90;;;;;;5063224;28;20031;-81
2023/06/02 10:10:17;;;;;;;5.13;0.40;;;15.50;99.90;;;;;;5049934;28;20372;-82
2023/06/02 10:13:05;;;;;;;4.78;0.50;;;15.90;99.90;;;;;;5070324;28;20516;-82
2023/06/02 10:15:31;;;;;;;1.40;0.40;;;15.90;99.90;;;;;;5067183;28;20044;-81
2023/06/02 10:18:08;;;;;;;2.72;0.47;;;15.90;99.90;;;;;;5067319;28;20073;-82
2023/06/02 10:20:58;;;;;;;2.78;0.43;;;16.00;99.90;;;;;;5065906;28;20427;-82
2023/06/02 10:23:52;;;;;;;4.30;0.40;;;16.20;99.90;;;;;;5067906;28;20452;-81
2023/06/02 10:26:42;;;;;;;7.97;1.17;;;16.10;99.90;;;;;;5065295;28;20037;-82
2023/06/02 10:29:09;;;;;;;2.97;0.40;;;16.00;99.90;;;;;;5072643;28;20101;-82
2023/06/02 10:31:35;;;;;;;8.18;0.90;;;16.50;99.90;;;;;;5067368;28;20062;-82
2023/06/02 10:34:01;;;;;;;5.10;0.60;;;16.10;99.90;;;;;;5066292;28;20032;-82
2023/06/02 10:36:56;;;;;;;3.10;0.60;;;16.40;99.90;;;;;;5063628;28;20127;-83
2023/06/02 10:39:57;;;;;;;5.82;0.50;;;16.40;99.90;;;;;;5039135;28;20044;-82
2023/06/02 10:42:27;;;;;;;2.40;0.40;;;16.40;99.90;;;;;;5056542;28;20484;-82
2023/06/02 10:45:27;;;;;;;3.50;0.50;;;16.80;99.90;;;;;;5080207;28;20016;-82
2023/06/02 10:47:52;;;;;;;5.50;0.77;;;16.90;99.90;;;;;;5081477;28;20115;-82
2023/06/02 10:50:21;;;;;;;9.07;1.33;;;16.60;99.90;;;;;;5081674;28;20368;-82
2023/06/02 10:53:04;;;;;;;4.97;0.80;;;16.30;99.90;;;;;;5067245;28;20036;-82
2023/06/02 10:55:34;;;;;;;9.98;0.90;;;16.60;99.90;;;;;;5083532;28;20024;-82
2023/06/02 10:58:05;;;;;;;8.38;0.60;;;16.50;99.90;;;;;;5049970;28;20032;-82
2023/06/02 11:00:39;;;;;;;8.73;0.93;;;16.80;99.90;;;;;;5098696;28;20129;-82
2023/06/02 11:03:26;;;;;;;5.55;0.60;;;16.50;99.90;;;;;;5067427;28;20028;-82
2023/06/02 11:06:15;;;;;;;7.10;0.70;;;16.70;99.90;;;;;;5085802;28;20477;-82
2023/06/02 11:08:41;;;;;;;4.60;0.90;;;16.80;99.90;;;;;;5059352;28;20035;-82
2023/06/02 11:11:07;;;;;;;8.32;1.20;;;16.60;99.90;;;;;;5097878;28;20032;-85
2023/06/02 11:13:58;;;;;;;10.15;1.20;;;16.90;99.90;;;;;;5080601;28;20393;-83
2023/06/02 11:16:26;;;;;;;;;;;16.80;99.90;;;;;;5081377;28;20173;-83
2023/06/02 11:18:51;;;;;;;5.30;0.63;;;16.90;99.90;;;;;;5079774;28;20421;-83
2023/06/02 11:21:20;;;;;;;5.68;0.70;;;17.00;99.90;;;;;;5059013;28;20071;-82
2023/06/02 11:23:45;;;;;;;6.18;0.93;;;16.50;99.90;;;;;;5066543;28;21145;-83
2023/06/02 11:26:17;;;;;;;4.97;0.77;;;16.20;99.90;;;;;;5097863;28;20166;-82
2023/06/02 11:28:42;;;;;;;8.82;1.33;;;16.60;99.90;;;;;;5080906;28;20073;-82
2023/06/02 11:31:19;;;;;;;4.60;0.75;;;16.40;99.90;;;;;;5065184;28;20111;-83
2023/06/02 11:33:49;;;;;;;5.57;1.45;;;16.40;99.90;;;;;;5071276;28;20040;-82
2023/06/02 11:36:17;;;;;;;6.75;1.02;;;16.00;99.90;;;;;;5065097;28;20506;-83
2023/06/02 11:38:43;;;;;;;4.60;1.00;;;16.30;99.90;;;;;;5077760;28;20047;-83
2023/06/02 11:41:10;;;;;;;4.32;0.52;;;16.80;99.90;;;;;;5078886;28;20036;-82
2023/06/02 11:43:36;;;;;;;3.58;0.70;;;17.20;99.90;;;;;;5096260;28;20165;-82
2023/06/02 11:46:06;;;;;;;10.00;1.20;;;17.20;99.90;;;;;;5084808;28;20029;-83
2023/06/02 11:48:32;;;;;;;7.78;0.98;;;16.90;99.90;;;;;;5065128;28;20038;-82
2023/06/02 11:50:57;;;;;;;2.17;0.50;;;17.50;99.90;;;;;;5066387;28;20028;-83
2023/06/02 11:53:23;;;;;;;4.03;0.60;;;17.90;99.90;;;;;;5068560;28;20477;-83
2023/06/02 11:55:51;;;;;;;3.67;0.50;;;18.00;99.90;;;;;;5083869;28;20518;-83
2023/06/02 11:58:22;;;;;;;4.97;0.50;;;18.10;99.90;;;;;;5064963;28;20028;-82
2023/06/02 12:00:52;;;;;;;2.72;0.50;;;18.00;99.90;;;;;;5082378;28;20048;-83
2023/06/02 12:03:17;;;;;;;3.88;1.10;;;17.90;99.90;;;;;;5048787;28;20116;-83
2023/06/02 12:05:45;;;;;;;7.28;1.00;;;17.20;99.90;;;;;;5097454;28;20111;-83
2023/06/02 12:08:20;;;;;;;4.07;1.10;;;17.20;99.90;;;;;;5080947;28;20436;-83
2023/06/02 12:10:46;;;;;;;4.93;0.50;;;17.60;99.90;;;;;;5051051;28;20033;-83
2023/06/02 12:13:25;;;;;;;5.30;0.82;;;17.80;99.90;;;;;;5079771;28;20528;-83
2023/06/02 12:15:52;;;;;;;4.97;0.90;;;17.70;99.90;;;;;;5064433;28;20040;-83
2023/06/02 12:18:30;;;;;;;7.93;1.30;;;17.50;99.90;;;;;;5049624;28;20115;-82
2023/06/02 12:20:57;;;;;;;7.53;0.88;;;17.00;99.90;;;;;;5064650;28;20035;-83
2023/06/02 12:23:23;;;;;;;7.30;0.90;;;17.30;99.90;;;;;;5073180;28;20027;-83
2023/06/02 12:25:56;;;;;;;3.20;0.60;;;17.70;99.90;;;;;;5069936;28;20032;-84
2023/06/02 12:28:23;;;;;;;3.47;0.50;;;18.40;99.90;;;;;;5070509;28;20024;-83
2023/06/02 12:30:49;;;;;;;3.78;0.63;;;18.60;99.90;;;;;;5067929;28;20020;-83
2023/06/02 12:33:15;;;;;;;2.30;0.43;;;18.50;99.90;;;;;;5070117;28;20032;-83
2023/06/02 12:35:41;;;;;;;2.03;0.50;;;18.70;99.90;;;;;;5069919;28;20024;-84
2023/06/02 12:38:08;;;;;;;4.30;0.95;;;19.00;99.90;;;;;;5084495;28;20036;-83
2023/06/02 12:40:35;;;;;;;3.60;0.70;;;18.80;99.90;;;;;;5087170;28;20131;-84
2023/06/02 12:43:01;;;;;;;5.90;1.17;;;18.70;99.90;;;;;;5056956;28;20085;-84
2023/06/02 12:45:27;;;;;;;3.67;0.70;;;18.60;99.90;;;;;;5070047;28;20043;-84
2023/06/02 12:47:54;;;;;;;4.95;0.80;;;18.40;99.90;;;;;;5083747;28;20401;-83
2023/06/02 12:50:24;;;;;;;3.45;0.73;;;18.50;99.90;;;;;;5053082;28;20131;-83
2023/06/02 12:52:53;;;;;;;4.22;0.80;;;18.40;99.90;;;;;;5061975;28;20035;-84